createdAt,value
2018-04-14T00:00:52.100Z,0.00
2018-04-14T00:01:52.132Z,0.00
2018-04-14T00:02:52.167Z,0.00
2018-04-14T00:03:52.202Z,0.00
2018-04-14T00:04:52.238Z,0.00
2018-04-14T00:05:52.275Z,0.00
2018-04-14T00:06:52.310Z,0.00
2018-04-14T00:07:52.345Z,0.00
2018-04-14T00:08:52.381Z,0.00
2018-04-14T00:09:52.424Z,0.00
2018-04-14T00:10:52.453Z,0.00
2018-04-14T00:11:52.488Z,0.00
2018-04-14T00:12:52.534Z,0.00
2018-04-14T00:13:52.557Z,0.00
2018-04-14T00:14:52.594Z,0.00
2018-04-14T00:15:52.629Z,0.00
2018-04-14T00:16:52.664Z,0.00
2018-04-14T00:17:52.702Z,0.00
2018-04-14T00:18:52.735Z,0.00
2018-04-14T00:19:52.770Z,0.00
2018-04-14T00:20:52.804Z,0.00
2018-04-14T00:21:52.842Z,0.00
2018-04-14T00:22:52.885Z,0.00
2018-04-14T00:23:52.912Z,0.00
2018-04-14T00:24:52.947Z,0.00
2018-04-14T00:25:52.982Z,0.00
2018-04-14T00:26:53.019Z,0.00
2018-04-14T00:27:53.051Z,0.00
2018-04-14T00:28:53.087Z,0.00
2018-04-14T00:29:53.125Z,0.00
2018-04-14T00:30:53.157Z,0.00
2018-04-14T00:31:53.194Z,0.00
2018-04-14T00:32:53.231Z,0.00
2018-04-14T00:33:53.263Z,0.00
2018-04-14T00:34:53.300Z,0.00
2018-04-14T00:35:53.346Z,0.00
2018-04-14T00:36:53.367Z,0.00
2018-04-14T00:37:53.405Z,0.00
2018-04-14T00:38:53.439Z,0.00
2018-04-14T00:39:53.475Z,0.00
2018-04-14T00:40:53.510Z,0.00
2018-04-14T00:41:53.551Z,0.00
2018-04-14T00:42:53.581Z,0.00
2018-04-14T00:43:53.616Z,0.00
2018-04-14T00:44:53.650Z,0.00
2018-04-14T00:45:53.698Z,0.00
2018-04-14T00:46:53.722Z,0.00
2018-04-14T00:47:53.759Z,0.00
2018-04-14T00:48:53.806Z,0.00
2018-04-14T00:49:53.828Z,0.00
2018-04-14T00:50:53.863Z,0.00
2018-04-14T00:51:53.904Z,0.00
2018-04-14T00:52:53.934Z,0.00
2018-04-14T00:53:53.969Z,0.00
2018-04-14T00:54:54.006Z,0.00
2018-04-14T00:55:54.041Z,0.00
2018-04-14T00:56:54.077Z,0.00
2018-04-14T00:57:54.110Z,0.00
2018-04-14T00:58:54.146Z,0.00
2018-04-14T00:59:54.194Z,0.00
2018-04-14T01:00:54.216Z,0.00
2018-04-14T01:01:54.251Z,0.00
2018-04-14T01:02:54.288Z,0.00
2018-04-14T01:03:54.324Z,0.00
2018-04-14T01:04:54.358Z,0.00
2018-04-14T01:05:54.393Z,0.00
2018-04-14T01:06:54.429Z,0.00
2018-04-14T01:07:54.463Z,0.00
2018-04-14T01:08:54.498Z,0.00
2018-04-14T01:09:54.534Z,0.00
2018-04-14T01:10:54.569Z,0.00
2018-04-14T01:11:54.606Z,0.00
2018-04-14T01:12:54.639Z,0.00
2018-04-14T01:13:54.678Z,0.00
2018-04-14T01:14:54.712Z,0.00
2018-04-14T01:15:54.746Z,0.00
2018-04-14T01:16:54.781Z,0.00
2018-04-14T01:17:54.817Z,0.00
2018-04-14T01:18:54.852Z,0.00
2018-04-14T01:19:54.887Z,0.00
2018-04-14T01:20:54.936Z,0.00
2018-04-14T01:21:54.958Z,0.00
2018-04-14T01:22:54.993Z,0.00
2018-04-14T01:23:55.028Z,0.00
2018-04-14T01:24:55.064Z,0.00
2018-04-14T01:25:55.100Z,0.00
2018-04-14T01:26:55.135Z,0.00
2018-04-14T01:27:55.170Z,0.00
2018-04-14T01:28:55.205Z,0.00
2018-04-14T01:29:55.241Z,0.00
2018-04-14T01:30:55.276Z,0.00
2018-04-14T01:31:55.311Z,0.00
2018-04-14T01:32:55.347Z,0.00
2018-04-14T01:33:55.382Z,0.00
2018-04-14T01:34:55.417Z,0.00
2018-04-14T01:35:55.451Z,0.00
2018-04-14T01:36:55.494Z,0.00
2018-04-14T01:37:55.522Z,0.00
2018-04-14T01:38:55.558Z,0.00
2018-04-14T01:39:55.593Z,0.00
2018-04-14T01:40:55.635Z,0.00
2018-04-14T01:41:55.663Z,0.00
2018-04-14T01:42:55.702Z,0.00
2018-04-14T01:43:55.735Z,0.00
2018-04-14T01:44:55.769Z,0.00
2018-04-14T01:45:55.806Z,0.00
2018-04-14T01:46:55.840Z,0.00
2018-04-14T01:47:55.878Z,0.00
2018-04-14T01:48:55.910Z,0.00
2018-04-14T01:49:55.997Z,0.00
2018-04-14T01:50:55.982Z,0.00
2018-04-14T01:51:56.017Z,0.00
2018-04-14T01:52:56.052Z,0.00
2018-04-14T01:53:56.087Z,0.00
2018-04-14T01:54:56.122Z,0.00
2018-04-14T01:55:56.158Z,0.00
2018-04-14T01:56:56.198Z,0.00
2018-04-14T01:57:56.230Z,0.00
2018-04-14T01:58:56.266Z,0.00
2018-04-14T01:59:56.300Z,0.00
2018-04-14T02:00:56.333Z,0.00
2018-04-14T02:01:56.378Z,0.00
2018-04-14T02:02:56.405Z,0.00
2018-04-14T02:03:56.442Z,0.00
2018-04-14T02:04:56.474Z,0.00
2018-04-14T02:05:56.511Z,0.00
2018-04-14T02:06:56.547Z,0.00
2018-04-14T02:07:56.582Z,0.00
2018-04-14T02:08:56.617Z,0.00
2018-04-14T02:09:56.652Z,0.00
2018-04-14T02:10:56.695Z,0.00
2018-04-14T02:11:56.722Z,0.00
2018-04-14T02:12:56.760Z,0.00
2018-04-14T02:13:56.795Z,0.00
2018-04-14T02:14:56.828Z,0.00
2018-04-14T02:15:56.862Z,0.00
2018-04-14T02:16:56.902Z,0.00
2018-04-14T02:17:56.936Z,0.00
2018-04-14T02:18:56.973Z,0.00
2018-04-14T02:19:57.004Z,0.00
2018-04-14T02:20:57.048Z,0.00
2018-04-14T02:21:57.075Z,0.00
2018-04-14T02:22:57.110Z,0.00
2018-04-14T02:23:57.145Z,0.00
2018-04-14T02:24:57.182Z,0.00
2018-04-14T02:25:57.216Z,0.00
2018-04-14T02:26:57.251Z,0.00
2018-04-14T02:27:57.287Z,0.00
2018-04-14T02:28:57.322Z,0.00
2018-04-14T02:29:57.356Z,0.00
2018-04-14T02:30:57.391Z,0.00
2018-04-14T02:31:57.426Z,0.00
2018-04-14T02:32:57.562Z,0.00
2018-04-14T02:33:57.497Z,0.00
2018-04-14T02:34:57.532Z,0.00
2018-04-14T02:35:57.577Z,0.00
2018-04-14T02:36:57.611Z,0.00
2018-04-14T02:37:57.642Z,0.00
2018-04-14T02:38:57.681Z,0.00
2018-04-14T02:39:57.708Z,0.00
2018-04-14T02:40:57.744Z,0.00
2018-04-14T02:41:57.779Z,0.00
2018-04-14T02:42:57.814Z,0.00
2018-04-14T02:43:57.859Z,0.00
2018-04-14T02:44:57.886Z,0.00
2018-04-14T02:45:57.919Z,0.00
2018-04-14T02:46:57.954Z,0.00
2018-04-14T02:47:57.991Z,0.00
2018-04-14T02:48:58.028Z,0.00
2018-04-14T02:49:58.064Z,0.00
2018-04-14T02:50:58.098Z,0.00
2018-04-14T02:51:58.130Z,0.00
2018-04-14T02:52:58.166Z,0.00
2018-04-14T02:53:58.199Z,0.00
2018-04-14T02:54:58.237Z,0.00
2018-04-14T02:55:58.271Z,0.00
2018-04-14T02:56:58.310Z,0.00
2018-04-14T02:57:58.340Z,0.00
2018-04-14T02:58:58.383Z,0.00
2018-04-14T02:59:58.420Z,0.00
2018-04-14T03:00:58.445Z,0.00
2018-04-14T03:01:58.481Z,0.00
2018-04-14T03:02:58.516Z,0.00
2018-04-14T03:03:58.554Z,0.00
2018-04-14T03:04:58.589Z,0.00
2018-04-14T03:05:58.621Z,0.00
2018-04-14T03:06:58.656Z,0.00
2018-04-14T03:07:58.692Z,0.00
2018-04-14T03:08:58.726Z,0.00
2018-04-14T03:09:58.760Z,0.00
2018-04-14T03:10:58.796Z,0.00
2018-04-14T03:11:58.830Z,0.00
2018-04-14T03:12:58.865Z,0.00
2018-04-14T03:13:58.899Z,0.00
2018-04-14T03:14:58.934Z,0.00
2018-04-14T03:15:58.970Z,0.00
2018-04-14T03:16:59.003Z,0.00
2018-04-14T03:17:59.037Z,0.00
2018-04-14T03:18:59.076Z,0.00
2018-04-14T03:19:59.107Z,0.00
2018-04-14T03:20:59.140Z,0.00
2018-04-14T03:21:59.176Z,0.00
2018-04-14T03:22:59.210Z,0.00
2018-04-14T03:23:59.246Z,0.00
2018-04-14T03:24:59.281Z,0.00
2018-04-14T03:25:59.315Z,0.00
2018-04-14T03:26:59.348Z,0.00
2018-04-14T03:27:59.381Z,0.00
2018-04-14T03:28:59.416Z,0.00
2018-04-14T03:29:59.459Z,0.00
2018-04-14T03:30:59.486Z,0.00
2018-04-14T03:31:59.521Z,0.00
2018-04-14T03:32:59.553Z,0.00
2018-04-14T03:33:59.589Z,0.00
2018-04-14T03:34:59.623Z,0.00
2018-04-14T03:35:59.658Z,0.00
2018-04-14T03:36:59.691Z,0.00
2018-04-14T03:37:59.727Z,0.00
2018-04-14T03:38:59.760Z,0.00
2018-04-14T03:39:59.794Z,0.00
2018-04-14T03:40:59.836Z,0.00
2018-04-14T03:41:59.862Z,0.00
2018-04-14T03:42:59.898Z,0.00
2018-04-14T03:43:59.933Z,0.00
2018-04-14T03:44:59.964Z,0.00
2018-04-14T03:46:00.000Z,0.00
2018-04-14T03:47:00.032Z,0.00
2018-04-14T03:48:00.067Z,0.00
2018-04-14T03:49:00.101Z,0.00
2018-04-14T03:50:00.137Z,0.00
2018-04-14T03:51:00.169Z,0.00
2018-04-14T03:52:00.206Z,0.00
2018-04-14T03:53:00.236Z,0.00
2018-04-14T03:54:00.272Z,0.00
2018-04-14T03:55:00.305Z,0.00
2018-04-14T03:56:00.341Z,0.00
2018-04-14T03:57:00.372Z,4.00
2018-04-14T03:58:00.409Z,0.00
2018-04-14T03:59:00.440Z,4.00
2018-04-14T04:00:00.477Z,4.00
2018-04-14T04:01:00.511Z,4.00
2018-04-14T04:02:00.543Z,4.00
2018-04-14T04:03:00.578Z,4.00
2018-04-14T04:04:00.636Z,8.00
2018-04-14T04:05:00.646Z,8.00
2018-04-14T04:06:00.684Z,12.00
2018-04-14T04:07:00.715Z,12.00
2018-04-14T04:08:00.748Z,16.00
2018-04-14T04:09:00.781Z,16.00
2018-04-14T04:10:00.820Z,20.00
2018-04-14T04:11:00.862Z,20.00
2018-04-14T04:12:00.902Z,24.00
2018-04-14T04:13:00.923Z,28.00
2018-04-14T04:14:00.951Z,28.00
2018-04-14T04:15:00.984Z,32.00
2018-04-14T04:16:01.019Z,36.00
2018-04-14T04:17:01.053Z,44.00
2018-04-14T04:18:01.088Z,48.00
2018-04-14T04:19:01.122Z,48.00
2018-04-14T04:20:01.156Z,56.00
2018-04-14T04:21:01.189Z,52.00
2018-04-14T04:22:01.224Z,52.00
2018-04-14T04:23:01.260Z,52.00
2018-04-14T04:24:01.294Z,56.00
2018-04-14T04:25:01.326Z,60.00
2018-04-14T04:26:01.361Z,60.00
2018-04-14T04:27:01.396Z,64.00
2018-04-14T04:28:01.429Z,68.00
2018-04-14T04:29:01.462Z,76.00
2018-04-14T04:30:01.495Z,80.00
2018-04-14T04:31:01.547Z,88.00
2018-04-14T04:32:01.573Z,92.00
2018-04-14T04:33:01.598Z,92.00
2018-04-14T04:34:01.638Z,96.00
2018-04-14T04:35:01.668Z,100.00
2018-04-14T04:36:01.704Z,100.00
2018-04-14T04:37:01.736Z,100.00
2018-04-14T04:38:01.771Z,104.00
2018-04-14T04:39:01.806Z,108.00
2018-04-14T04:40:01.842Z,124.00
2018-04-14T04:41:01.876Z,136.00
2018-04-14T04:42:01.908Z,152.00
2018-04-14T04:43:01.944Z,164.00
2018-04-14T04:44:01.977Z,172.00
2018-04-14T04:45:02.012Z,192.00
2018-04-14T04:46:02.045Z,208.00
2018-04-14T04:47:02.080Z,220.00
2018-04-14T04:48:02.114Z,228.00
2018-04-14T04:49:02.148Z,236.00
2018-04-14T04:50:02.183Z,260.00
2018-04-14T04:51:02.216Z,300.00
2018-04-14T04:52:02.251Z,348.00
2018-04-14T04:53:02.288Z,408.00
2018-04-14T04:54:02.321Z,472.00
2018-04-14T04:55:02.356Z,532.00
2018-04-14T04:56:02.396Z,588.00
2018-04-14T04:57:02.423Z,632.00
2018-04-14T04:58:02.458Z,696.00
2018-04-14T04:59:02.492Z,780.00
2018-04-14T05:00:02.530Z,864.00
2018-04-14T05:01:02.561Z,944.00
2018-04-14T05:02:02.595Z,1004.00
2018-04-14T05:03:02.630Z,1072.00
2018-04-14T05:04:02.665Z,1172.00
2018-04-14T05:05:02.696Z,1344.00
2018-04-14T05:06:02.740Z,1528.00
2018-04-14T05:07:02.769Z,1664.00
2018-04-14T05:08:02.802Z,1764.00
2018-04-14T05:09:02.836Z,1828.00
2018-04-14T05:10:02.873Z,1864.00
2018-04-14T05:11:02.905Z,1896.00
2018-04-14T05:12:02.941Z,1948.00
2018-04-14T05:13:02.975Z,2012.00
2018-04-14T05:14:03.009Z,2080.00
2018-04-14T05:15:03.044Z,2120.00
2018-04-14T05:16:03.077Z,2180.00
2018-04-14T05:17:03.140Z,2236.00
2018-04-14T05:18:03.148Z,2268.00
2018-04-14T05:19:03.183Z,2316.00
2018-04-14T05:20:03.217Z,2420.00
2018-04-14T05:21:03.251Z,2560.00
2018-04-14T05:22:03.290Z,2696.00
2018-04-14T05:23:03.323Z,2768.00
2018-04-14T05:24:03.354Z,2720.00
2018-04-14T05:25:03.390Z,2596.00
2018-04-14T05:26:03.425Z,2552.00
2018-04-14T05:27:03.458Z,2584.00
2018-04-14T05:28:03.493Z,2700.00
2018-04-14T05:29:03.529Z,2868.00
2018-04-14T05:30:03.570Z,3032.00
2018-04-14T05:31:03.597Z,3168.00
2018-04-14T05:32:03.633Z,3204.00
2018-04-14T05:33:03.663Z,3112.00
2018-04-14T05:34:03.707Z,2972.00
2018-04-14T05:35:03.734Z,2836.00
2018-04-14T05:36:03.768Z,2756.00
2018-04-14T05:37:03.804Z,2760.00
2018-04-14T05:38:03.837Z,2840.00
2018-04-14T05:39:03.872Z,2860.00
2018-04-14T05:40:03.906Z,2916.00
2018-04-14T05:41:03.938Z,2944.00
2018-04-14T05:42:03.973Z,2952.00
2018-04-14T05:43:04.010Z,2976.00
2018-04-14T05:44:04.044Z,3056.00
2018-04-14T05:45:04.081Z,3336.00
2018-04-14T05:46:04.111Z,3596.00
2018-04-14T05:47:04.150Z,3752.00
2018-04-14T05:48:04.188Z,3832.00
2018-04-14T05:49:04.215Z,3868.00
2018-04-14T05:50:04.250Z,3900.00
2018-04-14T05:51:04.284Z,3928.00
2018-04-14T05:52:04.319Z,3952.00
2018-04-14T05:53:04.454Z,3968.00
2018-04-14T05:54:04.387Z,4008.00
2018-04-14T05:55:04.429Z,4040.00
2018-04-14T05:56:04.456Z,4044.00
2018-04-14T05:57:04.490Z,4072.00
2018-04-14T05:58:04.526Z,4112.00
2018-04-14T05:59:04.559Z,4204.00
2018-04-14T06:00:04.595Z,4192.00
2018-04-14T06:01:04.628Z,4220.00
2018-04-14T06:02:04.664Z,4264.00
2018-04-14T06:03:04.699Z,4268.00
2018-04-14T06:04:04.734Z,4312.00
2018-04-14T06:05:04.766Z,4332.00
2018-04-14T06:06:04.801Z,4344.00
2018-04-14T06:07:04.836Z,4404.00
2018-04-14T06:08:04.870Z,4436.00
2018-04-14T06:09:04.923Z,4456.00
2018-04-14T06:10:04.940Z,4452.00
2018-04-14T06:11:04.978Z,4488.00
2018-04-14T06:12:05.009Z,4488.00
2018-04-14T06:13:05.041Z,4512.00
2018-04-14T06:14:05.075Z,4492.00
2018-04-14T06:15:05.112Z,4516.00
2018-04-14T06:16:05.152Z,4516.00
2018-04-14T06:17:05.181Z,4552.00
2018-04-14T06:18:05.215Z,4584.00
2018-04-14T06:19:05.256Z,4624.00
2018-04-14T06:20:05.286Z,4640.00
2018-04-14T06:21:05.319Z,4664.00
2018-04-14T06:22:05.423Z,4692.00
2018-04-14T06:23:05.389Z,4744.00
2018-04-14T06:24:05.424Z,4784.00
2018-04-14T06:25:05.465Z,4736.00
2018-04-14T06:26:05.497Z,4740.00
2018-04-14T06:27:05.527Z,4744.00
2018-04-14T06:28:05.562Z,4776.00
2018-04-14T06:29:05.595Z,4800.00
2018-04-14T06:30:05.635Z,4852.00
2018-04-14T06:31:05.704Z,4868.00
2018-04-14T06:32:05.700Z,4864.00
2018-04-14T06:33:05.735Z,4908.00
2018-04-14T06:34:05.770Z,4952.00
2018-04-14T06:35:05.806Z,4976.00
2018-04-14T06:36:05.842Z,5000.00
2018-04-14T06:37:05.874Z,5036.00
2018-04-14T06:38:05.910Z,5084.00
2018-04-14T06:39:05.945Z,5196.00
2018-04-14T06:40:05.981Z,5300.00
2018-04-14T06:41:06.023Z,5316.00
2018-04-14T06:42:06.052Z,5268.00
2018-04-14T06:43:06.091Z,5196.00
2018-04-14T06:44:06.124Z,5164.00
2018-04-14T06:45:06.159Z,5124.00
2018-04-14T06:46:06.194Z,5068.00
2018-04-14T06:47:06.227Z,5052.00
2018-04-14T06:48:06.261Z,5052.00
2018-04-14T06:49:06.295Z,5052.00
2018-04-14T06:50:06.344Z,5132.00
2018-04-14T06:51:06.366Z,5108.00
2018-04-14T06:52:06.401Z,5144.00
2018-04-14T06:53:06.436Z,5144.00
2018-04-14T06:54:06.469Z,5148.00
2018-04-14T06:55:06.507Z,5176.00
2018-04-14T06:56:06.542Z,5148.00
2018-04-14T06:57:06.579Z,5120.00
2018-04-14T06:58:06.612Z,5140.00
2018-04-14T06:59:06.647Z,5188.00
2018-04-14T07:00:06.682Z,5244.00
2018-04-14T07:01:06.717Z,5236.00
2018-04-14T07:02:06.757Z,5216.00
2018-04-14T07:03:06.798Z,5180.00
2018-04-14T07:04:06.823Z,5120.00
2018-04-14T07:05:06.859Z,5088.00
2018-04-14T07:06:06.896Z,5048.00
2018-04-14T07:07:06.948Z,5028.00
2018-04-14T07:08:06.963Z,5056.00
2018-04-14T07:09:07.000Z,5076.00
2018-04-14T07:10:07.042Z,5084.00
2018-04-14T07:11:07.076Z,5100.00
2018-04-14T07:12:07.119Z,5132.00
2018-04-14T07:13:07.144Z,5136.00
2018-04-14T07:14:07.185Z,5108.00
2018-04-14T07:15:07.223Z,5104.00
2018-04-14T07:16:07.246Z,5068.00
2018-04-14T07:17:07.282Z,5064.00
2018-04-14T07:18:07.320Z,5044.00
2018-04-14T07:19:07.356Z,5020.00
2018-04-14T07:20:07.390Z,4992.00
2018-04-14T07:21:07.424Z,4960.00
2018-04-14T07:22:07.558Z,4952.00
2018-04-14T07:23:07.496Z,4904.00
2018-04-14T07:24:07.531Z,4904.00
2018-04-14T07:25:07.566Z,4900.00
2018-04-14T07:26:07.601Z,4920.00
2018-04-14T07:27:07.637Z,4932.00
2018-04-14T07:28:07.675Z,4920.00
2018-04-14T07:29:07.709Z,4892.00
2018-04-14T07:30:07.749Z,4840.00
2018-04-14T07:31:07.782Z,4816.00
2018-04-14T07:32:07.818Z,4796.00
2018-04-14T07:33:07.854Z,4796.00
2018-04-14T07:34:07.889Z,4816.00
2018-04-14T07:35:07.925Z,4800.00
2018-04-14T07:36:07.958Z,4808.00
2018-04-14T07:37:07.994Z,4792.00
2018-04-14T07:38:08.030Z,4800.00
2018-04-14T07:39:08.069Z,4824.00
2018-04-14T07:40:08.106Z,4820.00
2018-04-14T07:41:08.139Z,4852.00
2018-04-14T07:42:08.174Z,4848.00
2018-04-14T07:43:08.210Z,4848.00
2018-04-14T07:44:08.246Z,4840.00
2018-04-14T07:45:08.292Z,4852.00
2018-04-14T07:46:08.324Z,4872.00
2018-04-14T07:47:08.362Z,4868.00
2018-04-14T07:48:08.391Z,4856.00
2018-04-14T07:49:08.427Z,4844.00
2018-04-14T07:50:08.473Z,4820.00
2018-04-14T07:51:08.503Z,4808.00
2018-04-14T07:52:08.535Z,4752.00
2018-04-14T07:53:08.572Z,4704.00
2018-04-14T07:54:08.608Z,4656.00
2018-04-14T07:55:08.660Z,4744.00
2018-04-14T07:56:08.745Z,4820.00
2018-04-14T07:57:08.721Z,4908.00
2018-04-14T07:58:08.751Z,4956.00
2018-04-14T07:59:08.788Z,4992.00
2018-04-14T08:00:08.824Z,5036.00
2018-04-14T08:01:08.865Z,5116.00
2018-04-14T08:02:08.897Z,5164.00
2018-04-14T08:03:08.933Z,5192.00
2018-04-14T08:04:08.968Z,5184.00
2018-04-14T08:05:09.012Z,5196.00
2018-04-14T08:06:09.074Z,5220.00
2018-04-14T08:07:09.078Z,5260.00
2018-04-14T08:08:09.121Z,5292.00
2018-04-14T08:09:09.152Z,5304.00
2018-04-14T08:10:09.187Z,5304.00
2018-04-14T08:11:09.222Z,5408.00
2018-04-14T08:12:09.259Z,5480.00
2018-04-14T08:13:09.299Z,5536.00
2018-04-14T08:14:09.338Z,5560.00
2018-04-14T08:15:09.369Z,5540.00
2018-04-14T08:16:09.406Z,5528.00
2018-04-14T08:17:09.441Z,5512.00
2018-04-14T08:18:09.478Z,5488.00
2018-04-14T08:19:09.515Z,5448.00
2018-04-14T08:20:09.556Z,5400.00
2018-04-14T08:21:09.588Z,5364.00
2018-04-14T08:22:09.626Z,5324.00
2018-04-14T08:23:09.670Z,5272.00
2018-04-14T08:24:09.715Z,5220.00
2018-04-14T08:25:09.734Z,5180.00
2018-04-14T08:26:09.828Z,5140.00
2018-04-14T08:27:09.806Z,5144.00
2018-04-14T08:28:09.854Z,5120.00
2018-04-14T08:29:09.935Z,5092.00
2018-04-14T08:30:09.916Z,5072.00
2018-04-14T08:31:09.956Z,5064.00
2018-04-14T08:32:09.992Z,5048.00
2018-04-14T08:33:10.027Z,5056.00
2018-04-14T08:34:10.063Z,5048.00
2018-04-14T08:35:10.098Z,5008.00
2018-04-14T08:36:10.136Z,5016.00
2018-04-14T08:37:10.172Z,5024.00
2018-04-14T08:38:10.210Z,5036.00
2018-04-14T08:39:10.248Z,5056.00
2018-04-14T08:40:10.286Z,5088.00
2018-04-14T08:41:10.321Z,5076.00
2018-04-14T08:42:10.356Z,5068.00
2018-04-14T08:43:10.393Z,5036.00
2018-04-14T08:44:10.435Z,5016.00
2018-04-14T08:45:10.467Z,4992.00
2018-04-14T08:46:10.505Z,5000.00
2018-04-14T08:47:10.544Z,4992.00
2018-04-14T08:48:10.578Z,4948.00
2018-04-14T08:49:10.616Z,4864.00
2018-04-14T08:50:10.653Z,4776.00
2018-04-14T08:51:10.691Z,4724.00
2018-04-14T08:52:10.789Z,4776.00
2018-04-14T08:53:11.207Z,4836.00
2018-04-14T08:54:10.806Z,4828.00
2018-04-14T08:55:10.842Z,4808.00
2018-04-14T08:56:10.880Z,4800.00
2018-04-14T08:57:10.914Z,4808.00
2018-04-14T08:58:10.950Z,4792.00
2018-04-14T08:59:10.995Z,4768.00
2018-04-14T09:00:11.043Z,4756.00
2018-04-14T09:01:11.060Z,4720.00
2018-04-14T09:02:11.097Z,4796.00
2018-04-14T09:03:11.137Z,4824.00
2018-04-14T09:04:11.180Z,4784.00
2018-04-14T09:05:11.218Z,4728.00
2018-04-14T09:06:11.248Z,4756.00
2018-04-14T09:07:11.284Z,4764.00
2018-04-14T09:08:11.326Z,4780.00
2018-04-14T09:09:11.469Z,4796.00
2018-04-14T09:10:11.403Z,4740.00
2018-04-14T09:11:11.438Z,4752.00
2018-04-14T09:12:11.475Z,4776.00
2018-04-14T09:13:11.523Z,4804.00
2018-04-14T09:14:11.550Z,4824.00
2018-04-14T09:15:11.592Z,4820.00
2018-04-14T09:16:11.635Z,4820.00
2018-04-14T09:17:11.661Z,4816.00
2018-04-14T09:18:11.705Z,4812.00
2018-04-14T09:19:11.737Z,4816.00
2018-04-14T09:20:11.774Z,4872.00
2018-04-14T09:21:11.811Z,4884.00
2018-04-14T09:22:11.860Z,4896.00
2018-04-14T09:23:11.892Z,4924.00
2018-04-14T09:24:11.924Z,4944.00
2018-04-14T09:25:11.968Z,4984.00
2018-04-14T09:26:12.001Z,4976.00
2018-04-14T09:27:12.043Z,5000.00
2018-04-14T09:28:12.076Z,5092.00
2018-04-14T09:29:12.123Z,5164.00
2018-04-14T09:30:12.161Z,5188.00
2018-04-14T09:31:12.216Z,5232.00
2018-04-14T09:32:12.229Z,5324.00
2018-04-14T09:33:12.264Z,5384.00
2018-04-14T09:34:12.304Z,5348.00
2018-04-14T09:35:12.343Z,5288.00
2018-04-14T09:36:12.395Z,5340.00
2018-04-14T09:37:12.427Z,5556.00
2018-04-14T09:38:12.459Z,5440.00
2018-04-14T09:39:12.494Z,5332.00
2018-04-14T09:40:12.533Z,5360.00
2018-04-14T09:41:12.571Z,5728.00
2018-04-14T09:42:12.614Z,6784.00
2018-04-14T09:43:13.067Z,8560.00
2018-04-14T09:44:12.686Z,8932.00
2018-04-14T09:45:12.722Z,8120.00
2018-04-14T09:46:12.763Z,7788.00
2018-04-14T09:47:12.799Z,7928.00
2018-04-14T09:48:12.839Z,7876.00
2018-04-14T09:49:12.877Z,6828.00
2018-04-14T09:50:13.017Z,6244.00
2018-04-14T09:51:12.958Z,6592.00
2018-04-14T09:52:12.995Z,6776.00
2018-04-14T09:53:13.032Z,6600.00
2018-04-14T09:54:13.082Z,6256.00
2018-04-14T09:55:13.109Z,6208.00
2018-04-14T09:56:13.147Z,5984.00
2018-04-14T09:57:13.195Z,5840.00
2018-04-14T09:58:13.624Z,6300.00
2018-04-14T09:59:13.267Z,6204.00
2018-04-14T10:00:13.309Z,5640.00
2018-04-14T10:01:13.357Z,5536.00
2018-04-14T10:02:13.383Z,5968.00
2018-04-14T10:03:13.420Z,6268.00
2018-04-14T10:04:13.456Z,7020.00
2018-04-14T10:05:13.496Z,8168.00
2018-04-14T10:06:13.536Z,9720.00
2018-04-14T10:07:13.783Z,11456.00
2018-04-14T10:08:13.614Z,12676.00
2018-04-14T10:09:13.654Z,13840.00
2018-04-14T10:10:13.744Z,15716.00
2018-04-14T10:11:13.734Z,17312.00
2018-04-14T10:12:13.770Z,18336.00
2018-04-14T10:13:13.806Z,18880.00
2018-04-14T10:14:13.845Z,17984.00
2018-04-14T10:15:13.895Z,16864.00
2018-04-14T10:16:13.985Z,16092.00
2018-04-14T10:17:13.965Z,15420.00
2018-04-14T10:18:14.604Z,14856.00
2018-04-14T10:19:14.075Z,13840.00
2018-04-14T10:20:14.085Z,13280.00
2018-04-14T10:21:14.120Z,12920.00
2018-04-14T10:22:14.162Z,12688.00
2018-04-14T10:23:14.203Z,12328.00
2018-04-14T10:24:14.242Z,11768.00
2018-04-14T10:25:14.290Z,11440.00
2018-04-14T10:26:14.322Z,11404.00
2018-04-14T10:27:14.663Z,11560.00
2018-04-14T10:28:14.403Z,11632.00
2018-04-14T10:29:14.528Z,11532.00
2018-04-14T10:30:14.484Z,12384.00
2018-04-14T10:31:14.525Z,14320.00
2018-04-14T10:32:14.631Z,15476.00
2018-04-14T10:33:14.603Z,16220.00
2018-04-14T10:34:14.642Z,15632.00
2018-04-14T10:35:14.689Z,15508.00
2018-04-14T10:36:14.746Z,15056.00
2018-04-14T10:37:14.767Z,15576.00
2018-04-14T10:38:14.807Z,17152.00
2018-04-14T10:39:14.874Z,18464.00
2018-04-14T10:40:14.889Z,18976.00
2018-04-14T10:41:14.931Z,19616.00
2018-04-14T10:42:14.971Z,20160.00
2018-04-14T10:43:15.014Z,19808.00
2018-04-14T10:44:15.052Z,20480.00
2018-04-14T10:45:15.090Z,20576.00
2018-04-14T10:46:15.187Z,20256.00
2018-04-14T10:47:15.175Z,20928.00
2018-04-14T10:48:15.217Z,19104.00
2018-04-14T10:49:15.260Z,16672.00
2018-04-14T10:50:15.301Z,15700.00
2018-04-14T10:51:15.341Z,15688.00
2018-04-14T10:52:15.384Z,15860.00
2018-04-14T10:53:15.424Z,16320.00
2018-04-14T10:54:15.467Z,17024.00
2018-04-14T10:55:15.508Z,17696.00
2018-04-14T10:56:15.560Z,17888.00
2018-04-14T10:57:15.592Z,18272.00
2018-04-14T10:58:15.640Z,19488.00
2018-04-14T10:59:15.680Z,20928.00
2018-04-14T11:00:15.727Z,21120.00
2018-04-14T11:01:15.763Z,21344.00
2018-04-14T11:02:15.828Z,21184.00
2018-04-14T11:03:15.847Z,21632.00
2018-04-14T11:04:15.889Z,21504.00
2018-04-14T11:05:15.932Z,20992.00
2018-04-14T11:06:15.978Z,20320.00
2018-04-14T11:07:16.017Z,19616.00
2018-04-14T11:08:16.088Z,19424.00
2018-04-14T11:09:16.100Z,19168.00
2018-04-14T11:10:16.144Z,18528.00
2018-04-14T11:11:16.238Z,17728.00
2018-04-14T11:12:16.230Z,17408.00
2018-04-14T11:13:16.337Z,18752.00
2018-04-14T11:14:16.339Z,19648.00
2018-04-14T11:15:16.372Z,19296.00
2018-04-14T11:16:16.401Z,18912.00
2018-04-14T11:17:16.445Z,19136.00
2018-04-14T11:18:16.483Z,18464.00
2018-04-14T11:19:16.528Z,17216.00
2018-04-14T11:20:16.577Z,15172.00
2018-04-14T11:21:16.612Z,14068.00
2018-04-14T11:22:16.656Z,13480.00
2018-04-14T11:23:16.697Z,12960.00
2018-04-14T11:24:16.741Z,12960.00
2018-04-14T11:25:16.783Z,14292.00
2018-04-14T11:26:16.827Z,15480.00
2018-04-14T11:27:16.869Z,15380.00
2018-04-14T11:28:16.919Z,14112.00
2018-04-14T11:29:16.952Z,12520.00
2018-04-14T11:30:17.011Z,12020.00
2018-04-14T11:31:17.103Z,12020.00
2018-04-14T11:32:17.090Z,12576.00
2018-04-14T11:33:17.133Z,13852.00
2018-04-14T11:34:17.184Z,14448.00
2018-04-14T11:35:17.927Z,14604.00
2018-04-14T11:36:17.252Z,14420.00
2018-04-14T11:37:17.293Z,14508.00
2018-04-14T11:38:17.342Z,13780.00
2018-04-14T11:39:17.407Z,12408.00
2018-04-14T11:40:17.423Z,11356.00
2018-04-14T11:41:17.467Z,10272.00
2018-04-14T11:42:17.507Z,9224.00
2018-04-14T11:43:17.547Z,8492.00
2018-04-14T11:44:17.591Z,8172.00
2018-04-14T11:45:17.631Z,8080.00
2018-04-14T11:46:17.686Z,8592.00
2018-04-14T11:47:17.717Z,9960.00
2018-04-14T11:48:17.772Z,11712.00
2018-04-14T11:49:17.801Z,12680.00
2018-04-14T11:50:17.860Z,12292.00
2018-04-14T11:51:17.886Z,11856.00
2018-04-14T11:52:17.930Z,12316.00
2018-04-14T11:53:17.971Z,13716.00
2018-04-14T11:54:18.015Z,14964.00
2018-04-14T11:55:18.056Z,15180.00
2018-04-14T11:56:18.106Z,15040.00
2018-04-14T11:57:18.141Z,15620.00
2018-04-14T11:58:18.187Z,14668.00
2018-04-14T11:59:18.224Z,13816.00
2018-04-14T12:00:18.266Z,12664.00
2018-04-14T12:01:18.308Z,11876.00
2018-04-14T12:02:18.385Z,11296.00
2018-04-14T12:03:18.406Z,11884.00
2018-04-14T12:04:18.436Z,13964.00
2018-04-14T12:05:18.476Z,15916.00
2018-04-14T12:06:18.520Z,15444.00
2018-04-14T12:07:18.595Z,14776.00
2018-04-14T12:08:18.604Z,14708.00
2018-04-14T12:09:18.649Z,14692.00
2018-04-14T12:10:18.692Z,14400.00
2018-04-14T12:11:18.732Z,14248.00
2018-04-14T12:12:18.775Z,14624.00
2018-04-14T12:13:18.817Z,15180.00
2018-04-14T12:14:18.910Z,15212.00
2018-04-14T12:15:18.916Z,14308.00
2018-04-14T12:16:18.948Z,14192.00
2018-04-14T12:17:18.988Z,14540.00
2018-04-14T12:18:19.037Z,14572.00
2018-04-14T12:19:19.071Z,13988.00
2018-04-14T12:20:19.116Z,13572.00
2018-04-14T12:21:19.157Z,12296.00
2018-04-14T12:22:19.198Z,11072.00
2018-04-14T12:23:19.243Z,10760.00
2018-04-14T12:24:19.288Z,10200.00
2018-04-14T12:25:19.327Z,9800.00
2018-04-14T12:26:19.372Z,10292.00
2018-04-14T12:27:19.413Z,11204.00